Morinville, Canada
Current Conditions -  °F | °C
As of 7:18 AM on Thursday 29 Jan 2015 (Local Time) from CYED Reporting Station
Overcast Overcast  
Wind Chill: 16°   Ceiling: 300
Heat Index: 16°   Visibility: 6mi
Dew Point: 14°   Wind: 3mph
Humidity: 93%   Direction: 100°E
Pressure: 30.29"   Gusts: NA
Location:  53.8°N, 113.65°W
Report Text: CYED 291418Z AUTO 10003KT 6SM OVC003 M09/M10 A3029 RMK ICG
Loading
Personal Weather Stations






























Interactive Weather Map New forecast layout! Learn more

10-Day Weather Forecast

Advertisements
Track Severe Weather on mobile